F/V Le Natif 2 — FKVW — position and weather

sailwx.info

Track history (hours):
 
Tides and Currents Weather Stations Pressure Air Temp Water Temp Dewpoint Dewpoint Depression Visibility Wind Speed Wind Dir Waves Ship Positions

F/V Le Natif 2

Last reported at 2016-May-28 12:17 UTC. Time now 2016-May-31 10:00 UTC.
Position N 46°42' W 001°56'.

Length 16 m.

Type: Fishing. MMSI: 228131600.

Date/timePositionNaut miles runAvg speedWind from/ knotsBaromVisibWave heightAir tempDewpointWater temp
2016-May-28 12:17N 46°42' W 001°56'0 0.1
2016-May-28 11:33N 46°42' W 001°57'0 0.1
2016-May-28 10:34N 46°42' W 001°56'7 6.5
2016-May-28 09:32N 46°43' W 002°06'9 9.1
2016-May-28 08:33N 46°46' W 002°18'19 9.1
2016-May-28 06:28N 46°52' W 002°45'9 9.3
2016-May-28 05:31N 46°56' W 002°56'9 8.8
2016-May-28 04:31N 46°59' W 003°09'9 9.0
2016-May-28 03:30N 47°02' W 003°21'8 8.9
2016-May-28 02:33N 47°05' W 003°33'9 8.6
2016-May-28 01:33N 47°08' W 003°45'9 8.5
2016-May-28 00:29N 47°11' W 003°57'9 8.4
2016-May-27 23:28N 47°14' W 004°09'30 4.3
2016-May-27 16:31N 47°25' W 004°51'4 1.8
2016-May-27 14:33N 47°27' W 004°55'1 0.3
2016-May-27 10:26N 47°28' W 004°54'2 2.4
2016-May-27 09:32N 47°29' W 004°51'3 3.0
2016-May-27 08:33N 47°29' W 004°47'3 2.4
2016-May-27 07:14N 47°27' W 004°44'2 2.3
2016-May-27 06:33N 47°25' W 004°44'3 2.8
2016-May-27 05:30N 47°25' W 004°48'7 1.5
2016-May-27 01:14N 47°31' W 004°49'10 0.2
2016-May-25 02:19N 47°27' W 004°36'35 1.0
2016-May-23 13:18N 47°10' W 003°50'6 7.7
2016-May-23 12:30N 47°08' W 003°42'8 7.8
2016-May-23 11:31N 47°06' W 003°31'8 7.8
2016-May-23 10:33N 47°02' W 003°21'8 8.0
2016-May-23 09:33N 46°58' W 003°11'8 8.0
2016-May-23 08:33N 46°55' W 002°60'24 7.7
2016-May-23 05:22N 46°48' W 002°26'6 7.6
2016-May-23 04:33N 46°46' W 002°17'7 7.4
2016-May-23 03:33N 46°43' W 002°07'7 7.1
2016-May-23 02:34N 46°41' W 001°57'  
2016-May-19 16:34N 46°42' W 001°56'3 2.8
2016-May-19 15:34N 46°39' W 001°57'9 8.6
2016-May-19 14:34N 46°31' W 001°53'4 3.7
2016-May-19 13:33N 46°30' W 001°47'2 1.7
2016-May-19 12:34N 46°29' W 001°49'10 9.5
2016-May-19 11:34N 46°31' W 002°02'  
Track history (hours):
 
Tides and Currents Weather Stations Pressure Air Temp Water Temp Dewpoint Dewpoint Depression Visibility Wind Speed Wind Dir Waves Ship Positions

F/V Le Natif 2

Last reported at 2016-May-28 12:17 UTC. Time now 2016-May-31 10:00 UTC.
Position N 46°42' W 001°56'.

Length 16 m.

Type: Fishing. MMSI: 228131600.

Date/timePositionNaut miles runAvg speedWind from/ knotsBaromVisibWave heightAir tempDewpointWater temp
2016-May-28 12:17N 46°42' W 001°56'0 0.1
2016-May-28 11:33N 46°42' W 001°57'0 0.1
2016-May-28 10:34N 46°42' W 001°56'7 6.5
2016-May-28 09:32N 46°43' W 002°06'9 9.1
2016-May-28 08:33N 46°46' W 002°18'19 9.1
2016-May-28 06:28N 46°52' W 002°45'9 9.3
2016-May-28 05:31N 46°56' W 002°56'9 8.8
2016-May-28 04:31N 46°59' W 003°09'9 9.0
2016-May-28 03:30N 47°02' W 003°21'8 8.9
2016-May-28 02:33N 47°05' W 003°33'9 8.6
2016-May-28 01:33N 47°08' W 003°45'9 8.5
2016-May-28 00:29N 47°11' W 003°57'9 8.4
2016-May-27 23:28N 47°14' W 004°09'30 4.3
2016-May-27 16:31N 47°25' W 004°51'4 1.8
2016-May-27 14:33N 47°27' W 004°55'1 0.3
2016-May-27 10:26N 47°28' W 004°54'2 2.4
2016-May-27 09:32N 47°29' W 004°51'3 3.0
2016-May-27 08:33N 47°29' W 004°47'3 2.4
2016-May-27 07:14N 47°27' W 004°44'2 2.3
2016-May-27 06:33N 47°25' W 004°44'3 2.8
2016-May-27 05:30N 47°25' W 004°48'7 1.5
2016-May-27 01:14N 47°31' W 004°49'10 0.2
2016-May-25 02:19N 47°27' W 004°36'35 1.0
2016-May-23 13:18N 47°10' W 003°50'6 7.7
2016-May-23 12:30N 47°08' W 003°42'8 7.8
2016-May-23 11:31N 47°06' W 003°31'8 7.8
2016-May-23 10:33N 47°02' W 003°21'8 8.0
2016-May-23 09:33N 46°58' W 003°11'8 8.0
2016-May-23 08:33N 46°55' W 002°60'24 7.7
2016-May-23 05:22N 46°48' W 002°26'6 7.6
2016-May-23 04:33N 46°46' W 002°17'7 7.4
2016-May-23 03:33N 46°43' W 002°07'7 7.1
2016-May-23 02:34N 46°41' W 001°57'  
2016-May-19 16:34N 46°42' W 001°56'3 2.8
2016-May-19 15:34N 46°39' W 001°57'9 8.6
2016-May-19 14:34N 46°31' W 001°53'4 3.7
2016-May-19 13:33N 46°30' W 001°47'2 1.7
2016-May-19 12:34N 46°29' W 001°49'10 9.5
2016-May-19 11:34N 46°31' W 002°02'  

Dump ship's entire track history